»·PEaware :: N101JP KPSP-KHHR

N101JP :: KPSP-KHHR

FLIGHT INFORMATION

Flight Status: Arrived
Operator: Privately registered:
United States
More flights under this callsign
Pilot: James T. (870)
Aircraft: PILATUS PC-12 EAGLE
(PC12)
More flights by this aircraft type
Origin: KPSP Palm Springs Intl
United States
Destination: KHHR Northrop/Hawthorne Mun
United States
More flights between these airports :: More routes between these airports
Route: +CATH1 PSP V388 PDZ PDZ270 HHR 25 LOC
File this flight plan on PilotEdge
Remarks:
Altitude:
(Current/Filed)
120ft
Speed:
(Current/Filed)
200kts
Departed: 09-Feb-15 03:54 PM
Arrived: 09-Feb-15 04:41 PM
Distance/Time
Traveled:
91nm/0:47
Distance/Time
To Go:
Arrived

Flight Plot

Page will automatically refresh every two minutes.


Map Options




Map Legend


Flown Route
Filed Route
Departure Airport
Arrival Airport
Navaid (VOR, NDB)
Fix

Horizontal Profiles

Position Reports

Time Latitude Longitude Heading Altitude Ground
Speed
09-Feb-15 15:25 33.826921 -116.500451 320 410ft 0kts
09-Feb-15 15:26 33.826921 -116.500451 320 410ft 0kts
09-Feb-15 15:27 33.826921 -116.500451 320 410ft 0kts
09-Feb-15 15:28 33.826921 -116.500451 320 410ft 0kts
09-Feb-15 15:29 33.826921 -116.500451 320 410ft 0kts
09-Feb-15 15:30 33.826921 -116.500451 320 410ft 0kts
09-Feb-15 15:31 33.826921 -116.500451 320 410ft 0kts
09-Feb-15 15:32 33.826921 -116.500451 320 410ft 0kts
09-Feb-15 15:33 33.826921 -116.500451 320 410ft 0kts
09-Feb-15 15:34 33.826921 -116.500451 320 410ft 0kts
09-Feb-15 15:35 33.826921 -116.500451 320 410ft 0kts
09-Feb-15 15:36 33.826921 -116.500451 320 410ft 0kts
09-Feb-15 15:37 33.826921 -116.500451 320 410ft 0kts
09-Feb-15 15:38 33.826921 -116.500451 320 410ft 0kts
09-Feb-15 15:39 33.826921 -116.500451 320 410ft 0kts
09-Feb-15 15:40 33.826921 -116.500451 320 410ft 0kts
09-Feb-15 15:41 33.826992 -116.500626 281 411ft 4kts
09-Feb-15 15:42 33.826374 -116.502368 234 414ft 10kts
09-Feb-15 15:43 33.824114 -116.501045 144 409ft 11kts
09-Feb-15 15:44 33.821536 -116.498761 143 400ft 11kts
09-Feb-15 15:45 33.819524 -116.496992 150 396ft 6kts
09-Feb-15 15:46 33.819166 -116.497133 238 395ft 0kts
09-Feb-15 15:47 33.819166 -116.497133 238 395ft 0kts
09-Feb-15 15:48 33.819662 -116.498749 324 399ft 16kts
09-Feb-15 15:49 33.844522 -116.519865 321 1047ft 157kts
09-Feb-15 15:50 33.879125 -116.552037 322 2528ft 160kts
09-Feb-15 15:51 33.915953 -116.562661 60 3934ft 162kts
09-Feb-15 15:52 33.901661 -116.512997 116 5316ft 165kts
09-Feb-15 15:53 33.881949 -116.463106 112 6690ft 171kts
09-Feb-15 15:54 33.860072 -116.412027 117 8162ft 173kts
09-Feb-15 15:55 33.840969 -116.359303 118 9559ft 173kts
09-Feb-15 15:56 33.821241 -116.317963 110 10670ft 169kts
09-Feb-15 15:57 33.800541 -116.267999 116 11873ft 170kts
09-Feb-15 15:58 33.758400 -116.257160 260 11955ft 216kts
09-Feb-15 15:59 33.783169 -116.307849 312 11955ft 227kts
09-Feb-15 16:00 33.824616 -116.365825 311 11962ft 232kts
09-Feb-15 16:01 33.866645 -116.424971 309 11970ft 233kts
09-Feb-15 16:02 33.887364 -116.498391 288 11974ft 235kts
09-Feb-15 16:03 33.906296 -116.572758 288 11970ft 235kts
09-Feb-15 16:04 33.924939 -116.646409 288 11970ft 235kts
09-Feb-15 16:05 33.943336 -116.719419 288 12002ft 236kts
09-Feb-15 16:06 33.946344 -116.795031 269 12042ft 234kts
09-Feb-15 16:07 33.943638 -116.871395 269 12021ft 232kts
09-Feb-15 16:08 33.940892 -116.946409 269 12029ft 230kts
09-Feb-15 16:09 33.938075 -117.021469 269 12029ft 230kts
09-Feb-15 16:10 33.935201 -117.096480 269 12029ft 230kts
09-Feb-15 16:11 33.932677 -117.172407 269 12029ft 229kts
09-Feb-15 16:12 33.929925 -117.248580 269 12026ft 228kts
09-Feb-15 16:13 33.927020 -117.324301 268 12022ft 227kts
09-Feb-15 16:14 33.924018 -117.399476 268 12020ft 225kts
09-Feb-15 16:15 33.920966 -117.473812 268 12020ft 224kts
09-Feb-15 16:16 33.921662 -117.547620 286 12038ft 221kts
09-Feb-15 16:17 33.937609 -117.618616 277 12022ft 223kts
09-Feb-15 16:18 33.948178 -117.692161 285 12014ft 226kts
09-Feb-15 16:19 33.969699 -117.762545 292 12021ft 229kts
09-Feb-15 16:20 33.986523 -117.834788 263 11310ft 236kts
09-Feb-15 16:21 33.966964 -117.910561 254 9781ft 242kts
09-Feb-15 16:22 33.931293 -117.970428 200 8183ft 236kts
09-Feb-15 16:23 33.873011 -118.000317 203 6585ft 227kts
09-Feb-15 16:24 33.820587 -118.034864 250 4973ft 219kts
09-Feb-15 16:25 33.831406 -118.097258 344 3371ft 213kts
09-Feb-15 16:25 33.871418 -118.072608 34 2635ft 190kts
09-Feb-15 16:27 33.928078 -118.073210 354 2157ft 143kts
09-Feb-15 16:28 33.964588 -118.081336 311 1988ft 128kts
09-Feb-15 16:29 33.951423 -118.114162 248 2004ft 124kts
09-Feb-15 16:30 33.933094 -118.150104 240 1845ft 138kts
09-Feb-15 16:31 33.929713 -118.192564 268 1481ft 107kts
09-Feb-15 16:32 33.927807 -118.232631 269 618ft 125kts
09-Feb-15 16:33 33.925977 -118.270804 268 598ft 106kts
09-Feb-15 16:34 33.924012 -118.305270 268 470ft 99kts
09-Feb-15 16:35 33.922896 -118.334787 267 61ft 42kts
09-Feb-15 16:36 33.922290 -118.337289 92 63ft 5kts
09-Feb-15 16:37 33.921883 -118.335003 90 61ft 0kts
09-Feb-15 16:38 33.921883 -118.335003 90 61ft 0kts
09-Feb-15 16:39 33.921883 -118.335003 90 61ft 0kts
09-Feb-15 16:40 33.921883 -118.335003 90 61ft 0kts
09-Feb-15 16:41 33.923585 -118.339623 180 71ft 0kts
09-Feb-15 16:42 33.923585 -118.339623 180 71ft 0kts
09-Feb-15 16:43 33.923585 -118.339623 180 71ft 0kts
09-Feb-15 16:44 33.923585 -118.339623 180 71ft 0kts
09-Feb-15 16:45 33.923585 -118.339623 180 71ft 0kts
09-Feb-15 16:46 33.923585 -118.339623 180 71ft 0kts
09-Feb-15 16:47 33.923585 -118.339623 180 71ft 0kts
09-Feb-15 16:48 33.923585 -118.339623 180 71ft 0kts
09-Feb-15 16:49 33.923585 -118.339623 180 71ft 0kts
09-Feb-15 16:50 33.923585 -118.339623 180 71ft 0kts

Navigation Log

Ident Type
Flight plan parsing failed, navigation log unavailable